• Join FlightAware (Why Join?)
  • Login
  • US Flag 
12:52PM EDT


 

Airport Tracker/Info


-or-


 

Live Flight TrackerFlight Track Log ✈ DAL3721 ✈ 07-May-2013 ✈ KDTW - KCRW

Flight Track Log - Related Links

Times and Time Zones

All times are in EDT time to prevent confusion due to time zone crossing. See the DAL3721 flight status page for this flight to view local times or setup timezone preferences in your user account.

Time Position Orientation Groundspeed Altitude Reporting Facility
EDT Latitude Longitude Course Direction KTS MPH feet Rate Location/Type
01:58PM 42.2314 -83.3342 90° East 151 174 1,500  Level Cleveland Center
01:59PM 42.2808 -83.2661 46° Northeast 232 267 4,400 1,860 Climbing Cleveland Center
02:00PM 42.3097 -83.1861 64° Northeast 245 282 6,000 1,920 Climbing Cleveland Center
02:01PM 42.1289 -82.7866 114° Southeast  Level FlightAware Approximate
02:01PM 42.2594 -83.1139 133° Southeast 268 308 8,400  Level Cleveland Center
02:02PM 42.1063 -82.6456 98° East  Level FlightAware Approximate
02:02PM 42.2092 -83.0250 127° Southeast 272 313 10,900  Level Cleveland Center
02:03PM 42.0833 -82.5054 90° East  Level FlightAware Approximate
02:03PM 42.1825 -82.9033 106° East 297 342 12,700  Level Cleveland Center
02:04PM 42.1558 -82.7792 106° East 321 369 14,700 1,860 Climbing Cleveland Center
02:05PM 42.1247 -82.6492 108° East 349 402 16,500 1,800 Climbing Cleveland Center
02:06PM 42.0936 -82.5194 108° East 362 417 18,300 1,800 Climbing Cleveland Center
02:07PM 42.0689 -82.3844 104° East 367 422 20,200 1,800 Climbing Cleveland Center
02:08PM 42.0542 -82.2525 99° East 362 417 22,000 1,560 Climbing Cleveland Center
02:09PM 42.0331 -82.1178 102° East 357 411 23,400 1,200 Climbing Cleveland Center
02:10PM 41.9656 -82.0131 131° Southeast 361 415 24,400 780 Climbing Cleveland Center
02:11PM 41.8792 -81.9272 143° Southeast 374 430 25,000 300 Climbing Cleveland Center
02:12PM 41.7842 -81.8389 145° Southeast 404 465 25,000  Level Cleveland Center
02:13PM 41.6811 -81.7425 145° Southeast 410 472 25,000  Level Cleveland Center
02:14PM 41.5903 -81.6519 143° Southeast 415 478 25,000 180 Level Cleveland Center
02:15PM 41.4931 -81.5644 146° Southeast 422 486 25,400 480 Climbing Cleveland Center
02:16PM 41.3828 -81.5461 173° South 402 463 26,000 300 Climbing Cleveland Center
02:17PM 41.2639 -81.5528 182° South 401 461 26,000  Level Cleveland Center
02:18PM 41.1447 -81.5647 184° South 416 479 26,000  Level Cleveland Center
02:19PM 41.0322 -81.5742 184° South 445 512 26,000  Level Cleveland Center
02:20PM 40.9111 -81.5858 184° South 445 512 26,000  Level Cleveland Center
02:22PM 40.7075 -81.5994 183° South 434 499 26,000  Level Indianapolis Center
02:23PM 40.5853 -81.6083 183° South 435 501 26,000  Level Indianapolis Center
02:24PM 40.4619 -81.6167 183° South 438 504 26,000  Level Indianapolis Center
02:25PM 40.3172 -81.6272 183° South 441 507 26,000  Level Indianapolis Center
02:26PM 40.1942 -81.6358 183° South 440 506 26,000  Level Indianapolis Center
02:27PM 40.0700 -81.6456 183° South 442 509 26,000  Level Indianapolis Center
02:28PM 39.9456 -81.6569 184° South 443 510 26,000 -120 Level Indianapolis Center
02:29PM 39.8211 -81.6658 183° South 442 509 25,800 -1,020 Descending Indianapolis Center
02:30PM 39.6981 -81.6742 183° South 439 505 24,000 -1,200 Descending Indianapolis Center
02:31PM 39.5844 -81.6836 184° South 428 493 23,400 -1,260 Descending Indianapolis Center
02:32PM 39.4706 -81.6806 179° South 412 474 21,400 -2,100 Descending Indianapolis Center
02:33PM 39.3383 -81.6700 176° South 396 456 19,200 -1,920 Descending Indianapolis Center
02:34PM 39.2331 -81.6611 176° South 382 440 17,500 -1,740 Descending Indianapolis Center
02:35PM 39.1322 -81.6525 176° South 366 421 15,700 -1,800 Descending Indianapolis Center
02:36PM 39.0339 -81.6453 177° South 356 410 13,800 -1,800 Descending Indianapolis Center
02:37PM 38.9394 -81.6217 169° South 346 398 12,100 -1,500 Descending Indianapolis Center
02:38PM 38.8625 -81.5850 160° South 305 351 10,700 -1,500 Descending Indianapolis Center
02:40PM 38.7906 -81.5511 160° South 280 322 9,100 -1,560 Descending Indianapolis Center
02:41PM 38.7211 -81.5169 159° South 265 305 7,600 -1,560 Descending Indianapolis Center
02:42PM 38.6478 -81.4836 160° South 263 303 6,000 -1,560 Descending Indianapolis Center
02:43PM 38.5825 -81.4533 160° South 253 291 4,400 -1,500 Descending Indianapolis Center
02:44PM 38.5094 -81.4289 165° South 234 269 3,000 -720 Descending Indianapolis Center
02:45PM 38.4647 -81.4661 213° Southwest 207 238 3,000  Level Indianapolis Center